sensor_id;sensor_type;location;lat;lon;timestamp;pressure;altitude;pressure_sealevel;temperature;humidity
31082;BME280;17737;52.586;13.284;2023-03-03T00:01:02;101892.56;;;-0.04;85.35
31082;BME280;17737;52.586;13.284;2023-03-03T00:03:30;101879.72;;;-0.13;85.94
31082;BME280;17737;52.586;13.284;2023-03-03T00:05:58;101891.59;;;-0.03;86.11
31082;BME280;17737;52.586;13.284;2023-03-03T00:08:26;101896.31;;;0.09;85.62
31082;BME280;17737;52.586;13.284;2023-03-03T00:10:54;101885.28;;;0.18;85.10
31082;BME280;17737;52.586;13.284;2023-03-03T00:13:24;101883.16;;;-0.11;85.52
31082;BME280;17737;52.586;13.284;2023-03-03T00:16:12;101892.78;;;-0.09;86.05
31082;BME280;17737;52.586;13.284;2023-03-03T00:18:43;101882.44;;;0.04;85.84
31082;BME280;17737;52.586;13.284;2023-03-03T00:21:25;101863.41;;;-0.04;86.39
31082;BME280;17737;52.586;13.284;2023-03-03T00:24:17;101874.31;;;0.07;86.06
31082;BME280;17737;52.586;13.284;2023-03-03T00:26:48;101876.25;;;0.03;85.79
31082;BME280;17737;52.586;13.284;2023-03-03T00:29:26;101876.91;;;0.09;85.85
31082;BME280;17737;52.586;13.284;2023-03-03T00:32:17;101877.25;;;0.20;85.46
31082;BME280;17737;52.586;13.284;2023-03-03T00:34:50;101875.19;;;0.08;85.73
31082;BME280;17737;52.586;13.284;2023-03-03T00:37:28;101870.09;;;0.22;85.66
31082;BME280;17737;52.586;13.284;2023-03-03T00:40:15;101867.16;;;0.09;85.42
31082;BME280;17737;52.586;13.284;2023-03-03T00:42:49;101865.28;;;-0.06;85.66
31082;BME280;17737;52.586;13.284;2023-03-03T00:45:26;101865.63;;;0.05;85.76
31082;BME280;17737;52.586;13.284;2023-03-03T00:47:57;101869.09;;;0.06;85.85
31082;BME280;17737;52.586;13.284;2023-03-03T00:50:34;101859.69;;;0.00;86.13
31082;BME280;17737;52.586;13.284;2023-03-03T00:53:10;101866.28;;;-0.09;85.98
31082;BME280;17737;52.586;13.284;2023-03-03T00:55:43;101860.31;;;-0.14;86.21
31082;BME280;17737;52.586;13.284;2023-03-03T00:58:11;101864.47;;;-0.08;86.49
31082;BME280;17737;52.586;13.284;2023-03-03T01:00:41;101850.00;;;-0.01;85.97
31082;BME280;17737;52.586;13.284;2023-03-03T01:03:12;101855.53;;;-0.06;86.00
31082;BME280;17737;52.586;13.284;2023-03-03T01:05:41;101852.88;;;-0.06;85.46
31082;BME280;17737;52.586;13.284;2023-03-03T01:08:09;101862.66;;;0.11;85.46
31082;BME280;17737;52.586;13.284;2023-03-03T01:10:40;101853.91;;;0.09;85.11
31082;BME280;17737;52.586;13.284;2023-03-03T01:13:11;101858.34;;;-0.09;85.50
31082;BME280;17737;52.586;13.284;2023-03-03T01:15:40;101857.84;;;-0.17;85.73
31082;BME280;17737;52.586;13.284;2023-03-03T01:18:10;101849.97;;;-0.18;86.16
31082;BME280;17737;52.586;13.284;2023-03-03T01:20:39;101853.41;;;-0.16;86.67
31082;BME280;17737;52.586;13.284;2023-03-03T01:23:08;101844.38;;;-0.12;86.11
31082;BME280;17737;52.586;13.284;2023-03-03T01:25:36;101842.66;;;-0.13;86.47
31082;BME280;17737;52.586;13.284;2023-03-03T01:28:04;101832.50;;;-0.41;86.54
31082;BME280;17737;52.586;13.284;2023-03-03T01:30:32;101837.78;;;-0.22;86.78
31082;BME280;17737;52.586;13.284;2023-03-03T01:33:00;101840.75;;;-0.28;86.97
31082;BME280;17737;52.586;13.284;2023-03-03T01:35:30;101826.63;;;-0.29;86.76
31082;BME280;17737;52.586;13.284;2023-03-03T01:37:58;101821.50;;;-0.50;87.21
31082;BME280;17737;52.586;13.284;2023-03-03T01:40:27;101827.31;;;-0.61;88.00
31082;BME280;17737;52.586;13.284;2023-03-03T01:42:58;101820.22;;;-0.60;88.36
31082;BME280;17737;52.586;13.284;2023-03-03T01:45:28;101814.00;;;-0.59;88.57
31082;BME280;17737;52.586;13.284;2023-03-03T01:47:59;101818.06;;;-0.71;88.51
31082;BME280;17737;52.586;13.284;2023-03-03T01:50:37;101803.22;;;-0.73;88.68
31082;BME280;17737;52.586;13.284;2023-03-03T01:53:16;101814.22;;;-0.82;88.85
31082;BME280;17737;52.586;13.284;2023-03-03T01:55:46;101814.94;;;-0.79;89.06
31082;BME280;17737;52.586;13.284;2023-03-03T01:58:20;101809.63;;;-0.79;88.91
31082;BME280;17737;52.586;13.284;2023-03-03T02:00:56;101814.38;;;-0.85;89.15
31082;BME280;17737;52.586;13.284;2023-03-03T02:03:29;101822.78;;;-0.77;89.36
31082;BME280;17737;52.586;13.284;2023-03-03T02:06:02;101826.88;;;-0.70;89.46
31082;BME280;17737;52.586;13.284;2023-03-03T02:08:38;101828.31;;;-0.63;89.31
31082;BME280;17737;52.586;13.284;2023-03-03T02:11:11;101825.53;;;-0.60;88.94
31082;BME280;17737;52.586;13.284;2023-03-03T02:13:41;101825.53;;;-0.60;88.96
31082;BME280;17737;52.586;13.284;2023-03-03T02:16:09;101830.66;;;-0.57;88.99
31082;BME280;17737;52.586;13.284;2023-03-03T02:18:37;101831.94;;;-0.66;89.39
31082;BME280;17737;52.586;13.284;2023-03-03T02:21:10;101829.31;;;-0.47;88.90
31082;BME280;17737;52.586;13.284;2023-03-03T02:23:46;101832.03;;;-0.67;89.06
31082;BME280;17737;52.586;13.284;2023-03-03T02:26:23;101830.66;;;-0.57;88.86
31082;BME280;17737;52.586;13.284;2023-03-03T02:28:52;101832.19;;;-0.52;89.37
31082;BME280;17737;52.586;13.284;2023-03-03T02:31:22;101836.75;;;-0.55;89.18
31082;BME280;17737;52.586;13.284;2023-03-03T02:33:52;101827.53;;;-0.47;88.99
31082;BME280;17737;52.586;13.284;2023-03-03T02:36:23;101839.56;;;-0.58;89.12
31082;BME280;17737;52.586;13.284;2023-03-03T02:38:58;101826.97;;;-0.53;89.05
31082;BME280;17737;52.586;13.284;2023-03-03T02:41:35;101831.94;;;-0.47;88.97
31082;BME280;17737;52.586;13.284;2023-03-03T02:44:09;101830.97;;;-0.63;89.21
31082;BME280;17737;52.586;13.284;2023-03-03T02:46:41;101827.72;;;-0.70;89.47
31082;BME280;17737;52.586;13.284;2023-03-03T02:49:13;101828.97;;;-0.77;89.86
31082;BME280;17737;52.586;13.284;2023-03-03T02:51:43;101840.53;;;-0.79;89.85
31082;BME280;17737;52.586;13.284;2023-03-03T02:54:12;101837.66;;;-0.75;90.35
31082;BME280;17737;52.586;13.284;2023-03-03T02:56:43;101829.78;;;-0.76;90.19
31082;BME280;17737;52.586;13.284;2023-03-03T02:59:12;101832.00;;;-0.86;90.09
31082;BME280;17737;52.586;13.284;2023-03-03T03:01:41;101828.88;;;-0.94;90.32
31082;BME280;17737;52.586;13.284;2023-03-03T03:04:11;101828.78;;;-0.92;90.72
31082;BME280;17737;52.586;13.284;2023-03-03T03:06:40;101833.38;;;-0.77;90.55
31082;BME280;17737;52.586;13.284;2023-03-03T03:09:13;101831.53;;;-0.75;90.44
31082;BME280;17737;52.586;13.284;2023-03-03T03:11:44;101835.72;;;-0.71;90.45
31082;BME280;17737;52.586;13.284;2023-03-03T03:14:12;101840.66;;;-0.82;90.17
31082;BME280;17737;52.586;13.284;2023-03-03T03:16:41;101852.56;;;-0.72;90.25
31082;BME280;17737;52.586;13.284;2023-03-03T03:19:09;101855.19;;;-0.72;90.38
31082;BME280;17737;52.586;13.284;2023-03-03T03:21:37;101866.41;;;-0.86;90.11
31082;BME280;17737;52.586;13.284;2023-03-03T03:24:06;101864.53;;;-1.02;90.79
31082;BME280;17737;52.586;13.284;2023-03-03T03:26:34;101857.25;;;-0.97;91.09
31082;BME280;17737;52.586;13.284;2023-03-03T03:29:03;101860.31;;;-1.27;91.46
31082;BME280;17737;52.586;13.284;2023-03-03T03:31:31;101864.47;;;-1.21;91.71
31082;BME280;17737;52.586;13.284;2023-03-03T03:33:59;101857.91;;;-1.12;91.95
31082;BME280;17737;52.586;13.284;2023-03-03T03:36:27;101859.28;;;-1.24;91.92
31082;BME280;17737;52.586;13.284;2023-03-03T03:38:55;101863.38;;;-1.17;92.15
31082;BME280;17737;52.586;13.284;2023-03-03T03:41:23;101848.47;;;-1.18;92.45
31082;BME280;17737;52.586;13.284;2023-03-03T03:43:51;101840.97;;;-1.08;92.72
31082;BME280;17737;52.586;13.284;2023-03-03T03:46:20;101841.63;;;-1.03;92.20
31082;BME280;17737;52.586;13.284;2023-03-03T03:48:48;101845.97;;;-1.21;92.53
31082;BME280;17737;52.586;13.284;2023-03-03T03:51:16;101841.78;;;-1.27;92.85
31082;BME280;17737;52.586;13.284;2023-03-03T03:53:44;101839.00;;;-1.24;92.59
31082;BME280;17737;52.586;13.284;2023-03-03T03:56:12;101839.16;;;-1.27;92.86
31082;BME280;17737;52.586;13.284;2023-03-03T03:58:41;101838.06;;;-1.23;92.91
31082;BME280;17737;52.586;13.284;2023-03-03T04:01:08;101828.69;;;-1.09;92.58
31082;BME280;17737;52.586;13.284;2023-03-03T04:03:38;101832.66;;;-1.19;92.66
31082;BME280;17737;52.586;13.284;2023-03-03T04:06:06;101823.28;;;-1.27;92.78
31082;BME280;17737;52.586;13.284;2023-03-03T04:08:34;101819.84;;;-1.29;92.81
31082;BME280;17737;52.586;13.284;2023-03-03T04:11:02;101821.44;;;-1.25;92.48
31082;BME280;17737;52.586;13.284;2023-03-03T04:13:30;101825.75;;;-1.42;92.97
31082;BME280;17737;52.586;13.284;2023-03-03T04:16:00;101817.72;;;-1.21;93.01
31082;BME280;17737;52.586;13.284;2023-03-03T04:18:28;101819.97;;;-1.11;92.56
31082;BME280;17737;52.586;13.284;2023-03-03T04:20:58;101819.53;;;-1.21;92.41
31082;BME280;17737;52.586;13.284;2023-03-03T04:23:26;101821.88;;;-1.15;92.17
31082;BME280;17737;52.586;13.284;2023-03-03T04:25:54;101814.75;;;-1.13;92.29
31082;BME280;17737;52.586;13.284;2023-03-03T04:28:22;101813.63;;;-1.07;92.01
31082;BME280;17737;52.586;13.284;2023-03-03T04:30:50;101811.00;;;-1.09;92.25
31082;BME280;17737;52.586;13.284;2023-03-03T04:33:18;101813.63;;;-1.07;92.11
31082;BME280;17737;52.586;13.284;2023-03-03T04:35:46;101811.66;;;-1.43;92.37
31082;BME280;17737;52.586;13.284;2023-03-03T04:38:16;101811.78;;;-1.26;92.69
31082;BME280;17737;52.586;13.284;2023-03-03T04:40:44;101816.22;;;-1.26;92.89
31082;BME280;17737;52.586;13.284;2023-03-03T04:43:12;101819.69;;;-1.26;93.18
31082;BME280;17737;52.586;13.284;2023-03-03T04:45:41;101817.84;;;-1.24;93.38
31082;BME280;17737;52.586;13.284;2023-03-03T04:48:09;101821.31;;;-1.22;93.41
31082;BME280;17737;52.586;13.284;2023-03-03T04:50:37;101820.19;;;-1.16;93.82
31082;BME280;17737;52.586;13.284;2023-03-03T04:53:05;101817.38;;;-1.13;93.19
31082;BME280;17737;52.586;13.284;2023-03-03T04:55:36;101817.00;;;-1.24;93.65
31082;BME280;17737;52.586;13.284;2023-03-03T04:58:04;101823.69;;;-1.36;93.63
31082;BME280;17737;52.586;13.284;2023-03-03T05:00:32;101811.63;;;-1.23;93.47
31082;BME280;17737;52.586;13.284;2023-03-03T05:03:01;101806.31;;;-1.21;93.31
31082;BME280;17737;52.586;13.284;2023-03-03T05:05:29;101803.00;;;-1.26;94.02
31082;BME280;17737;52.586;13.284;2023-03-03T05:07:57;101798.31;;;-1.19;93.87
31082;BME280;17737;52.586;13.284;2023-03-03T05:10:25;101800.41;;;-1.28;93.96
31082;BME280;17737;52.586;13.284;2023-03-03T05:12:54;101790.75;;;-1.29;94.07
31082;BME280;17737;52.586;13.284;2023-03-03T05:15:22;101802.94;;;-1.25;94.00
31082;BME280;17737;52.586;13.284;2023-03-03T05:17:50;101797.81;;;-1.29;94.14
31082;BME280;17737;52.586;13.284;2023-03-03T05:20:18;101796.97;;;-1.50;94.09
31082;BME280;17737;52.586;13.284;2023-03-03T05:22:47;101799.31;;;-1.42;94.16
31082;BME280;17737;52.586;13.284;2023-03-03T05:25:15;101810.75;;;-1.42;93.91
31082;BME280;17737;52.586;13.284;2023-03-03T05:27:43;101814.06;;;-1.57;93.89
31082;BME280;17737;52.586;13.284;2023-03-03T05:30:13;101819.19;;;-1.54;93.84
31082;BME280;17737;52.586;13.284;2023-03-03T05:32:42;101817.47;;;-1.55;93.96
31082;BME280;17737;52.586;13.284;2023-03-03T05:35:09;101820.78;;;-1.50;94.06
31082;BME280;17737;52.586;13.284;2023-03-03T05:37:37;101827.72;;;-1.27;94.22
31082;BME280;17737;52.586;13.284;2023-03-03T05:40:11;101831.50;;;-1.14;93.86
31082;BME280;17737;52.586;13.284;2023-03-03T05:42:40;101821.59;;;-1.09;93.46
31082;BME280;17737;52.586;13.284;2023-03-03T05:45:09;101834.22;;;-1.15;93.01
31082;BME280;17737;52.586;13.284;2023-03-03T05:47:39;101834.34;;;-0.98;92.72
31082;BME280;17737;52.586;13.284;2023-03-03T05:50:08;101834.16;;;-1.14;92.33
31082;BME280;17737;52.586;13.284;2023-03-03T05:52:37;101837.22;;;-1.23;92.52
31082;BME280;17737;52.586;13.284;2023-03-03T05:55:06;101836.28;;;-1.22;92.64
31082;BME280;17737;52.586;13.284;2023-03-03T05:57:35;101833.59;;;-1.21;92.50
31082;BME280;17737;52.586;13.284;2023-03-03T06:00:04;101838.28;;;-1.27;92.54
31082;BME280;17737;52.586;13.284;2023-03-03T06:02:33;101836.69;;;-1.31;92.81
31082;BME280;17737;52.586;13.284;2023-03-03T06:05:04;101835.03;;;-1.13;93.17
31082;BME280;17737;52.586;13.284;2023-03-03T06:07:33;101839.75;;;-1.20;93.11
31082;BME280;17737;52.586;13.284;2023-03-03T06:10:01;101844.16;;;-1.21;93.05
31082;BME280;17737;52.586;13.284;2023-03-03T06:12:29;101838.94;;;-1.22;93.19
31082;BME280;17737;52.586;13.284;2023-03-03T06:14:57;101834.81;;;-1.09;93.17
31082;BME280;17737;52.586;13.284;2023-03-03T06:17:33;101841.03;;;-1.10;93.24
31082;BME280;17737;52.586;13.284;2023-03-03T06:20:11;101842.94;;;-0.93;93.24
31082;BME280;17737;52.586;13.284;2023-03-03T06:22:39;101840.44;;;-0.96;93.19
31082;BME280;17737;52.586;13.284;2023-03-03T06:25:08;101851.09;;;-0.79;92.77
31082;BME280;17737;52.586;13.284;2023-03-03T06:27:36;101855.25;;;-0.92;92.63
31082;BME280;17737;52.586;13.284;2023-03-03T06:30:05;101855.97;;;-0.89;92.47
31082;BME280;17737;52.586;13.284;2023-03-03T06:32:34;101855.69;;;-0.83;92.57
31082;BME280;17737;52.586;13.284;2023-03-03T06:35:02;101849.22;;;-0.96;92.56
31082;BME280;17737;52.586;13.284;2023-03-03T06:37:31;101850.09;;;-0.95;92.68
31082;BME280;17737;52.586;13.284;2023-03-03T06:39:59;101850.34;;;-1.01;93.19
31082;BME280;17737;52.586;13.284;2023-03-03T06:42:27;101852.06;;;-1.00;93.05
31082;BME280;17737;52.586;13.284;2023-03-03T06:44:55;101863.25;;;-1.14;92.71
31082;BME280;17737;52.586;13.284;2023-03-03T06:47:23;101859.63;;;-1.11;92.56
31082;BME280;17737;52.586;13.284;2023-03-03T06:49:51;101858.78;;;-0.93;92.38
31082;BME280;17737;52.586;13.284;2023-03-03T06:52:23;101858.22;;;-1.00;92.14
31082;BME280;17737;52.586;13.284;2023-03-03T06:54:57;101863.53;;;-0.81;91.75
31082;BME280;17737;52.586;13.284;2023-03-03T06:57:29;101878.69;;;-0.85;92.08
31082;BME280;17737;52.586;13.284;2023-03-03T07:00:05;101879.88;;;-0.72;91.68
31082;BME280;17737;52.586;13.284;2023-03-03T07:02:42;101890.72;;;-0.78;91.45
31082;BME280;17737;52.586;13.284;2023-03-03T07:05:13;101888.44;;;-0.85;91.21
31082;BME280;17737;52.586;13.284;2023-03-03T07:07:46;101882.28;;;-0.86;91.56
31082;BME280;17737;52.586;13.284;2023-03-03T07:10:21;101885.19;;;-0.92;91.98
31082;BME280;17737;52.586;13.284;2023-03-03T07:12:51;101899.78;;;-0.83;91.72
31082;BME280;17737;52.586;13.284;2023-03-03T07:15:22;101885.91;;;-0.88;91.88
31082;BME280;17737;52.586;13.284;2023-03-03T07:17:54;101903.25;;;-1.01;92.02
31082;BME280;17737;52.586;13.284;2023-03-03T07:20:31;101896.13;;;-0.99;92.20
31082;BME280;17737;52.586;13.284;2023-03-03T07:23:14;101900.81;;;-1.06;92.30
31082;BME280;17737;52.586;13.284;2023-03-03T07:25:49;101893.94;;;-1.10;92.85
31082;BME280;17737;52.586;13.284;2023-03-03T07:28:22;101903.25;;;-1.01;92.92
31082;BME280;17737;52.586;13.284;2023-03-03T07:30:52;101905.63;;;-1.15;93.29
31082;BME280;17737;52.586;13.284;2023-03-03T07:33:25;101906.63;;;-1.18;93.40
31082;BME280;17737;52.586;13.284;2023-03-03T07:35:56;101903.84;;;-1.15;93.33
31082;BME280;17737;52.586;13.284;2023-03-03T07:38:30;101902.59;;;-1.06;93.39
31082;BME280;17737;52.586;13.284;2023-03-03T07:41:08;101908.69;;;-1.04;93.20
31082;BME280;17737;52.586;13.284;2023-03-03T07:43:47;101905.75;;;-0.98;93.07
31082;BME280;17737;52.586;13.284;2023-03-03T07:46:26;101911.97;;;-0.79;93.06
31082;BME280;17737;52.586;13.284;2023-03-03T07:48:57;101917.00;;;-0.73;92.35
31082;BME280;17737;52.586;13.284;2023-03-03T07:51:27;101917.50;;;-0.65;92.10
31082;BME280;17737;52.586;13.284;2023-03-03T07:54:10;101912.47;;;-0.71;91.70
31082;BME280;17737;52.586;13.284;2023-03-03T07:56:46;101921.50;;;-0.75;91.80
31082;BME280;17737;52.586;13.284;2023-03-03T07:59:20;101919.38;;;-0.87;92.07
31082;BME280;17737;52.586;13.284;2023-03-03T08:01:51;101902.44;;;-0.83;92.06
31082;BME280;17737;52.586;13.284;2023-03-03T08:04:23;101909.16;;;-0.76;92.03
31082;BME280;17737;52.586;13.284;2023-03-03T08:06:56;101919.16;;;-0.83;91.79
31082;BME280;17737;52.586;13.284;2023-03-03T08:09:44;101915.25;;;-0.74;91.29
31082;BME280;17737;52.586;13.284;2023-03-03T08:15:22;101907.44;;;-0.39;90.45
31082;BME280;17737;52.586;13.284;2023-03-03T08:17:53;101915.13;;;-0.33;89.83
31082;BME280;17737;52.586;13.284;2023-03-03T08:20:53;101911.66;;;-0.16;89.42
31082;BME280;17737;52.586;13.284;2023-03-03T08:23:23;101909.28;;;-0.22;89.00
31082;BME280;17737;52.586;13.284;2023-03-03T08:25:52;101911.09;;;-0.41;89.70
31082;BME280;17737;52.586;13.284;2023-03-03T08:28:20;101917.59;;;-0.11;89.31
31082;BME280;17737;52.586;13.284;2023-03-03T08:30:50;101913.31;;;-0.14;89.39
31082;BME280;17737;52.586;13.284;2023-03-03T08:33:34;101914.16;;;-0.13;89.33
31082;BME280;17737;52.586;13.284;2023-03-03T08:36:03;101915.09;;;-0.14;89.29
31082;BME280;17737;52.586;13.284;2023-03-03T08:38:31;101917.09;;;-0.01;88.78
31082;BME280;17737;52.586;13.284;2023-03-03T08:41:00;101919.28;;;-0.09;88.65
31082;BME280;17737;52.586;13.284;2023-03-03T08:43:28;101916.81;;;-0.13;88.94
31082;BME280;17737;52.586;13.284;2023-03-03T08:45:59;101920.56;;;-0.17;89.17
31082;BME280;17737;52.586;13.284;2023-03-03T08:48:28;101924.69;;;-0.12;88.71
31082;BME280;17737;52.586;13.284;2023-03-03T08:50:56;101925.69;;;-0.14;88.87
31082;BME280;17737;52.586;13.284;2023-03-03T08:53:25;101923.63;;;-0.08;88.60
31082;BME280;17737;52.586;13.284;2023-03-03T08:55:54;101919.16;;;0.12;87.85
31082;BME280;17737;52.586;13.284;2023-03-03T08:58:22;101927.84;;;0.15;87.34
31082;BME280;17737;52.586;13.284;2023-03-03T09:01:03;101921.94;;;0.09;87.65
31082;BME280;17737;52.586;13.284;2023-03-03T09:03:31;101921.94;;;0.09;88.00
31082;BME280;17737;52.586;13.284;2023-03-03T09:05:59;101921.66;;;0.15;87.99
31082;BME280;17737;52.586;13.284;2023-03-03T09:08:27;101912.72;;;0.34;87.83
31082;BME280;17737;52.586;13.284;2023-03-03T09:10:55;101914.75;;;0.29;87.21
31082;BME280;17737;52.586;13.284;2023-03-03T09:13:23;101910.66;;;0.41;87.73
31082;BME280;17737;52.586;13.284;2023-03-03T09:15:51;101908.56;;;0.12;87.33
31082;BME280;17737;52.586;13.284;2023-03-03T09:18:22;101911.38;;;0.26;87.39
31082;BME280;17737;52.586;13.284;2023-03-03T09:20:56;101913.38;;;0.39;86.91
31082;BME280;17737;52.586;13.284;2023-03-03T09:23:29;101909.06;;;0.20;87.46
31082;BME280;17737;52.586;13.284;2023-03-03T09:26:18;101913.47;;;0.19;87.36
31082;BME280;17737;52.586;13.284;2023-03-03T09:28:53;101910.91;;;0.18;87.65
31082;BME280;17737;52.586;13.284;2023-03-03T09:31:26;101916.69;;;0.44;87.00
31082;BME280;17737;52.586;13.284;2023-03-03T09:34:13;101911.66;;;0.38;86.88
31082;BME280;17737;52.586;13.284;2023-03-03T09:36:46;101910.81;;;0.55;86.79
31082;BME280;17737;52.586;13.284;2023-03-03T09:39:17;101919.31;;;0.44;86.82
31082;BME280;17737;52.586;13.284;2023-03-03T09:42:04;101916.00;;;0.39;87.31
31082;BME280;17737;52.586;13.284;2023-03-03T09:45:07;101917.25;;;0.68;86.81
31082;BME280;17737;52.586;13.284;2023-03-03T09:48:23;101919.81;;;0.86;86.72
31082;BME280;17737;52.586;13.284;2023-03-03T09:51:12;101914.50;;;0.69;86.84
31082;BME280;17737;52.586;13.284;2023-03-03T09:53:59;101918.69;;;0.90;86.32
31082;BME280;17737;52.586;13.284;2023-03-03T09:56:40;101923.16;;;0.73;86.49
31082;BME280;17737;52.586;13.284;2023-03-03T09:59:23;101920.28;;;0.94;85.47
31082;BME280;17737;52.586;13.284;2023-03-03T10:02:34;101918.25;;;0.99;85.07
31082;BME280;17737;52.586;13.284;2023-03-03T10:05:27;101914.66;;;1.00;85.26
31082;BME280;17737;52.586;13.284;2023-03-03T10:08:15;101924.41;;;1.00;85.54
31082;BME280;17737;52.586;13.284;2023-03-03T10:10:57;101922.63;;;1.00;85.55
31082;BME280;17737;52.586;13.284;2023-03-03T10:13:40;101924.94;;;1.06;85.43
31082;BME280;17737;52.586;13.284;2023-03-03T10:16:36;101911.38;;;0.78;86.70
31082;BME280;17737;52.586;13.284;2023-03-03T10:19:35;101919.66;;;1.06;86.36
31082;BME280;17737;52.586;13.284;2023-03-03T10:22:18;101911.06;;;1.01;86.79
31082;BME280;17737;52.586;13.284;2023-03-03T10:25:06;101914.72;;;0.99;86.01
31082;BME280;17737;52.586;13.284;2023-03-03T10:27:58;101904.94;;;1.16;86.04
31082;BME280;17737;52.586;13.284;2023-03-03T10:30:49;101913.34;;;1.09;85.55
31082;BME280;17737;52.586;13.284;2023-03-03T10:33:41;101915.03;;;1.10;85.73
31082;BME280;17737;52.586;13.284;2023-03-03T10:36:29;101913.34;;;1.09;85.95
31082;BME280;17737;52.586;13.284;2023-03-03T10:39:30;101907.19;;;1.41;85.79
31082;BME280;17737;52.586;13.284;2023-03-03T10:42:32;101916.53;;;0.98;86.27
31082;BME280;17737;52.586;13.284;2023-03-03T10:45:44;101915.94;;;1.26;85.63
31082;BME280;17737;52.586;13.284;2023-03-03T10:49:04;101913.53;;;1.21;85.49
31082;BME280;17737;52.586;13.284;2023-03-03T10:51:58;101913.22;;;1.28;85.93
31082;BME280;17737;52.586;13.284;2023-03-03T10:58:19;101919.44;;;1.27;86.12
31082;BME280;17737;52.586;13.284;2023-03-03T11:00:59;101921.19;;;1.28;86.69
31082;BME280;17737;52.586;13.284;2023-03-03T11:03:45;101916.81;;;1.27;86.63
31082;BME280;17737;52.586;13.284;2023-03-03T11:06:42;101925.78;;;1.41;85.73
31082;BME280;17737;52.586;13.284;2023-03-03T11:09:38;101915.00;;;1.27;86.43
31082;BME280;17737;52.586;13.284;2023-03-03T11:12:27;101915.31;;;1.54;85.82
31082;BME280;17737;52.586;13.284;2023-03-03T11:15:38;101905.75;;;1.51;85.18
31082;BME280;17737;52.586;13.284;2023-03-03T11:18:32;101907.69;;;1.48;85.03
31082;BME280;17737;52.586;13.284;2023-03-03T11:21:33;101913.09;;;1.46;85.10
31082;BME280;17737;52.586;13.284;2023-03-03T11:24:30;101909.63;;;1.61;84.76
31082;BME280;17737;52.586;13.284;2023-03-03T11:27:48;101906.22;;;1.42;86.01
31082;BME280;17737;52.586;13.284;2023-03-03T11:30:50;101902.00;;;1.71;85.80
31082;BME280;17737;52.586;13.284;2023-03-03T11:33:35;101907.41;;;1.85;84.81
31082;BME280;17737;52.586;13.284;2023-03-03T11:36:14;101904.66;;;1.71;84.06
31082;BME280;17737;52.586;13.284;2023-03-03T11:38:50;101898.75;;;1.97;83.81
31082;BME280;17737;52.586;13.284;2023-03-03T11:41:33;101906.31;;;1.89;83.88
31082;BME280;17737;52.586;13.284;2023-03-03T11:44:10;101904.25;;;1.94;84.68
31082;BME280;17737;52.586;13.284;2023-03-03T11:46:52;101903.47;;;1.92;84.59
31082;BME280;17737;52.586;13.284;2023-03-03T11:49:34;101892.66;;;1.95;84.15
31082;BME280;17737;52.586;13.284;2023-03-03T11:52:20;101898.66;;;1.98;84.16
31082;BME280;17737;52.586;13.284;2023-03-03T11:55:05;101892.56;;;2.12;83.82
31082;BME280;17737;52.586;13.284;2023-03-03T11:57:49;101898.03;;;2.40;83.21
31082;BME280;17737;52.586;13.284;2023-03-03T12:00:30;101883.00;;;2.39;82.69
31082;BME280;17737;52.586;13.284;2023-03-03T12:03:20;101884.50;;;2.13;83.60
31082;BME280;17737;52.586;13.284;2023-03-03T12:06:09;101878.94;;;2.63;83.06
31082;BME280;17737;52.586;13.284;2023-03-03T12:09:26;101868.34;;;2.32;83.01
31082;BME280;17737;52.586;13.284;2023-03-03T12:12:28;101869.34;;;2.15;82.99
31082;BME280;17737;52.586;13.284;2023-03-03T12:22:08;101855.88;;;2.03;84.05
31082;BME280;17737;52.586;13.284;2023-03-03T12:24:56;101849.97;;;1.98;84.24
31082;BME280;17737;52.586;13.284;2023-03-03T12:27:51;101850.63;;;2.17;84.09
31082;BME280;17737;52.586;13.284;2023-03-03T12:30:38;101837.50;;;2.29;83.63
31082;BME280;17737;52.586;13.284;2023-03-03T12:33:26;101841.19;;;2.27;83.40
31082;BME280;17737;52.586;13.284;2023-03-03T12:36:16;101854.72;;;2.38;82.99
31082;BME280;17737;52.586;13.284;2023-03-03T12:38:56;101838.50;;;2.27;83.26
31082;BME280;17737;52.586;13.284;2023-03-03T12:41:36;101836.59;;;2.44;82.87
31082;BME280;17737;52.586;13.284;2023-03-03T12:44:17;101844.66;;;2.43;82.75
31082;BME280;17737;52.586;13.284;2023-03-03T12:46:55;101837.72;;;2.40;82.47
31082;BME280;17737;52.586;13.284;2023-03-03T12:49:36;101837.31;;;2.32;82.88
31082;BME280;17737;52.586;13.284;2023-03-03T12:52:32;101837.84;;;2.53;82.79
31082;BME280;17737;52.586;13.284;2023-03-03T12:55:23;101833.47;;;2.52;82.79
31082;BME280;17737;52.586;13.284;2023-03-03T12:58:14;101827.53;;;2.77;82.07
31082;BME280;17737;52.586;13.284;2023-03-03T13:01:23;101820.00;;;2.55;82.05
31082;BME280;17737;52.586;13.284;2023-03-03T13:04:07;101824.78;;;2.34;83.47
31082;BME280;17737;52.586;13.284;2023-03-03T13:06:57;101816.97;;;2.61;83.51
31082;BME280;17737;52.586;13.284;2023-03-03T13:10:01;101815.94;;;2.64;82.85
31082;BME280;17737;52.586;13.284;2023-03-03T13:12:39;101822.38;;;2.60;82.89
31082;BME280;17737;52.586;13.284;2023-03-03T13:15:20;101802.59;;;2.50;82.58
31082;BME280;17737;52.586;13.284;2023-03-03T13:18:18;101817.63;;;2.65;82.54
31082;BME280;17737;52.586;13.284;2023-03-03T13:21:03;101808.66;;;2.95;81.43
31082;BME280;17737;52.586;13.284;2023-03-03T13:23:44;101812.16;;;2.82;81.77
31082;BME280;17737;52.586;13.284;2023-03-03T13:26:24;101803.13;;;2.70;82.31
31082;BME280;17737;52.586;13.284;2023-03-03T13:29:12;101802.72;;;2.62;83.02
31082;BME280;17737;52.586;13.284;2023-03-03T13:31:48;101803.19;;;2.55;83.60
31082;BME280;17737;52.586;13.284;2023-03-03T13:34:29;101793.44;;;2.83;82.48
31082;BME280;17737;52.586;13.284;2023-03-03T13:37:13;101799.72;;;2.82;82.32
31082;BME280;17737;52.586;13.284;2023-03-03T13:39:55;101800.09;;;3.04;81.82
31082;BME280;17737;52.586;13.284;2023-03-03T13:42:39;101794.47;;;2.95;81.90